createdAt,value
2023-09-17T00:02:08.282Z,70.95
2023-09-17T00:04:35.147Z,69.61
2023-09-17T00:07:01.719Z,71.31
2023-09-17T00:09:28.227Z,71.24
2023-09-17T00:11:54.802Z,70.53
2023-09-17T00:14:21.824Z,70.35
2023-09-17T00:16:48.672Z,71.66
2023-09-17T00:19:15.235Z,71.39
2023-09-17T00:21:41.789Z,69.97
2023-09-17T00:24:08.560Z,70.99
2023-09-17T00:26:35.181Z,71.02
2023-09-17T00:29:02.156Z,69.80
2023-09-17T00:31:29.155Z,71.36
2023-09-17T00:33:55.885Z,70.59
2023-09-17T00:36:23.850Z,70.12
2023-09-17T00:38:50.444Z,70.11
2023-09-17T00:41:17.124Z,70.98
2023-09-17T00:43:43.690Z,70.92
2023-09-17T00:46:10.716Z,72.01
2023-09-17T00:48:38.530Z,72.29
2023-09-17T00:51:05.438Z,72.69
2023-09-17T00:53:32.240Z,72.13
2023-09-17T00:56:00.115Z,70.60
2023-09-17T00:58:29.705Z,71.18
2023-09-17T01:00:59.338Z,71.50
2023-09-17T01:03:29.471Z,71.51
2023-09-17T01:05:57.753Z,70.81
2023-09-17T01:08:26.297Z,71.91
2023-09-17T01:10:56.154Z,71.97
2023-09-17T01:13:25.350Z,71.10
2023-09-17T01:15:53.133Z,70.67
2023-09-17T01:18:23.253Z,71.57
2023-09-17T01:21:01.623Z,70.37
2023-09-17T01:23:39.718Z,69.83
2023-09-17T01:26:16.973Z,70.63
2023-09-17T01:28:43.933Z,71.27
2023-09-17T01:31:10.818Z,71.04
2023-09-17T01:33:37.340Z,69.76
2023-09-17T01:36:20.153Z,71.45
2023-09-17T01:38:53.707Z,70.15
2023-09-17T01:41:21.189Z,71.84
2023-09-17T01:43:48.130Z,71.31
2023-09-17T01:46:17.729Z,71.33
2023-09-17T01:48:46.808Z,70.91
2023-09-17T01:51:14.443Z,71.01
2023-09-17T01:53:40.913Z,70.68
2023-09-17T01:56:07.437Z,71.37
2023-09-17T01:58:35.239Z,70.58
2023-09-17T02:01:02.138Z,71.22
2023-09-17T02:03:30.255Z,72.76
2023-09-17T02:05:57.037Z,71.79
2023-09-17T02:08:23.700Z,71.92
2023-09-17T02:10:50.201Z,72.90
2023-09-17T02:13:16.741Z,71.70
2023-09-17T02:15:43.458Z,71.33
2023-09-17T02:18:09.994Z,70.78
2023-09-17T02:20:40.227Z,71.21
2023-09-17T02:23:07.812Z,70.32
2023-09-17T02:25:34.268Z,70.48
2023-09-17T02:28:00.991Z,71.67
2023-09-17T02:30:29.546Z,71.17
2023-09-17T02:32:56.105Z,71.87
2023-09-17T02:35:22.661Z,71.40
2023-09-17T02:37:50.427Z,71.52
2023-09-17T02:40:17.540Z,70.88
2023-09-17T02:42:45.456Z,70.14
2023-09-17T02:45:12.803Z,69.67
2023-09-17T02:47:41.759Z,71.12
2023-09-17T02:50:10.916Z,72.50
2023-09-17T02:52:37.862Z,72.95
2023-09-17T02:55:05.922Z,72.31
2023-09-17T02:57:32.712Z,71.89
2023-09-17T02:59:59.249Z,72.34
2023-09-17T03:02:26.255Z,72.02
2023-09-17T03:04:54.057Z,72.98
2023-09-17T03:07:20.720Z,73.35
2023-09-17T03:09:47.369Z,72.51
2023-09-17T03:12:13.901Z,72.59
2023-09-17T03:14:40.581Z,70.82
2023-09-17T03:17:07.176Z,72.15
2023-09-17T03:19:33.946Z,71.93
2023-09-17T03:22:01.778Z,72.05
2023-09-17T03:24:28.301Z,71.69
2023-09-17T03:26:54.748Z,71.24
2023-09-17T03:29:21.332Z,72.46
2023-09-17T03:31:49.492Z,72.61
2023-09-17T03:34:16.189Z,72.78
2023-09-17T03:36:42.679Z,72.56
2023-09-17T03:39:10.117Z,73.01
2023-09-17T03:41:41.269Z,72.26
2023-09-17T03:44:11.142Z,73.51
2023-09-17T03:46:39.319Z,73.08
2023-09-17T03:49:07.077Z,73.37
2023-09-17T03:51:33.935Z,72.41
2023-09-17T03:54:01.105Z,72.31
2023-09-17T03:56:28.256Z,71.68
2023-09-17T03:58:55.795Z,71.89
2023-09-17T04:01:22.500Z,73.34
2023-09-17T04:03:50.074Z,73.61
2023-09-17T04:06:17.041Z,72.72
2023-09-17T04:08:44.027Z,74.57
2023-09-17T04:11:16.698Z,73.08
2023-09-17T04:13:43.319Z,72.72
2023-09-17T04:16:11.173Z,72.68
2023-09-17T04:18:37.874Z,72.45
2023-09-17T04:21:05.015Z,70.75
2023-09-17T04:23:31.710Z,71.68
2023-09-17T04:25:58.256Z,71.72
2023-09-17T04:28:25.230Z,70.29
2023-09-17T04:30:51.772Z,71.58
2023-09-17T04:33:20.715Z,70.80
2023-09-17T04:35:47.391Z,71.32
2023-09-17T04:38:13.884Z,72.50
2023-09-17T04:40:40.767Z,72.96
2023-09-17T04:43:07.333Z,72.84
2023-09-17T04:45:35.293Z,73.02
2023-09-17T04:48:02.358Z,73.09
2023-09-17T04:50:29.763Z,73.77
2023-09-17T04:52:56.792Z,73.24
2023-09-17T04:55:23.692Z,73.55
2023-09-17T04:57:51.187Z,73.59
2023-09-17T05:00:17.931Z,72.96
2023-09-17T05:02:44.463Z,73.25
2023-09-17T05:05:11.762Z,73.19
2023-09-17T05:07:41.160Z,73.79
2023-09-17T05:10:08.827Z,74.28
2023-09-17T05:12:35.378Z,74.50
2023-09-17T05:15:01.846Z,74.69
2023-09-17T05:17:28.372Z,73.43
2023-09-17T05:19:55.040Z,73.88
2023-09-17T05:22:21.630Z,74.81
2023-09-17T05:24:48.213Z,75.10
2023-09-17T05:27:14.701Z,74.84
2023-09-17T05:29:42.065Z,75.42
2023-09-17T05:32:08.674Z,75.16
2023-09-17T05:34:35.435Z,75.49
2023-09-17T05:37:01.993Z,75.50
2023-09-17T05:39:28.495Z,75.45
2023-09-17T05:41:56.293Z,75.56
2023-09-17T05:44:23.909Z,75.50
2023-09-17T05:46:50.346Z,75.55
2023-09-17T05:49:16.832Z,75.62
2023-09-17T05:51:43.333Z,75.55
2023-09-17T05:54:10.107Z,75.56
2023-09-17T05:56:36.625Z,75.71
2023-09-17T05:59:03.152Z,75.56
2023-09-17T06:01:31.969Z,75.62
2023-09-17T06:03:58.599Z,75.73
2023-09-17T06:06:25.211Z,75.64
2023-09-17T06:08:53.092Z,75.63
2023-09-17T06:11:20.407Z,75.21
2023-09-17T06:13:47.083Z,75.07
2023-09-17T06:16:13.697Z,75.58
2023-09-17T06:18:40.196Z,76.18
2023-09-17T06:21:06.654Z,75.34
2023-09-17T06:23:33.205Z,75.25
2023-09-17T06:26:00.593Z,74.78
2023-09-17T06:28:27.434Z,74.95
2023-09-17T06:30:54.962Z,73.47
2023-09-17T06:33:21.469Z,73.69
2023-09-17T06:35:48.010Z,73.21
2023-09-17T06:38:14.516Z,73.00
2023-09-17T06:40:41.042Z,71.97
2023-09-17T06:43:07.517Z,72.02
2023-09-17T06:45:34.187Z,72.17
2023-09-17T06:48:00.864Z,71.29
2023-09-17T06:50:27.428Z,70.85
2023-09-17T06:52:53.973Z,70.75
2023-09-17T06:55:20.493Z,70.11
2023-09-17T06:57:47.056Z,69.53
2023-09-17T07:00:15.416Z,69.32
2023-09-17T07:02:42.170Z,69.09
2023-09-17T07:05:09.942Z,68.68
2023-09-17T07:07:36.548Z,69.04
2023-09-17T07:10:05.308Z,68.24
2023-09-17T07:12:37.062Z,68.44
2023-09-17T07:15:04.806Z,68.37
2023-09-17T07:17:31.492Z,67.72
2023-09-17T07:19:58.288Z,67.96
2023-09-17T07:22:24.847Z,67.62
2023-09-17T07:24:57.234Z,66.10
2023-09-17T07:27:23.760Z,67.37
2023-09-17T07:29:50.283Z,66.44
2023-09-17T07:32:16.861Z,65.83
2023-09-17T07:34:43.409Z,64.95
2023-09-17T07:37:09.926Z,65.52
2023-09-17T07:39:36.483Z,65.02
2023-09-17T07:42:03.627Z,65.37
2023-09-17T07:44:30.144Z,64.61
2023-09-17T07:46:56.636Z,64.10
2023-09-17T07:49:28.297Z,64.75
2023-09-17T07:51:54.943Z,64.14
2023-09-17T07:54:21.460Z,63.86
2023-09-17T07:56:48.021Z,63.47
2023-09-17T07:59:14.523Z,62.39
2023-09-17T08:01:41.161Z,62.25
2023-09-17T08:04:10.809Z,62.01
2023-09-17T08:06:37.384Z,61.29
2023-09-17T08:09:06.625Z,61.77
2023-09-17T08:11:33.219Z,60.58
2023-09-17T08:14:00.302Z,61.25
2023-09-17T08:16:27.341Z,60.55
2023-09-17T08:18:53.949Z,60.41
2023-09-17T08:21:21.575Z,58.68
2023-09-17T08:23:48.116Z,59.38
2023-09-17T08:26:14.642Z,57.49
2023-09-17T08:28:43.465Z,57.23
2023-09-17T08:31:10.030Z,57.98
2023-09-17T08:33:37.073Z,56.38
2023-09-17T08:36:04.107Z,56.27
2023-09-17T08:38:31.166Z,55.88
2023-09-17T08:41:02.415Z,55.41
2023-09-17T08:43:29.445Z,54.30
2023-09-17T08:45:56.294Z,53.88
2023-09-17T08:48:24.001Z,52.86
2023-09-17T08:50:52.151Z,52.95
2023-09-17T08:53:29.637Z,52.24
2023-09-17T08:55:58.241Z,51.30
2023-09-17T08:58:37.555Z,51.48
2023-09-17T09:01:05.785Z,49.92
2023-09-17T09:03:36.330Z,48.99
2023-09-17T09:06:04.810Z,48.80
2023-09-17T09:08:35.882Z,49.06
2023-09-17T09:11:02.548Z,47.63
2023-09-17T09:13:30.062Z,46.98
2023-09-17T09:15:57.950Z,47.31
2023-09-17T09:18:25.706Z,46.37
2023-09-17T09:20:52.300Z,45.92
2023-09-17T09:23:18.775Z,45.87
2023-09-17T09:25:45.624Z,45.46
2023-09-17T09:28:12.382Z,44.31
2023-09-17T09:30:38.892Z,45.73
2023-09-17T09:33:05.853Z,44.40
2023-09-17T09:35:32.613Z,44.66
2023-09-17T09:38:01.265Z,43.15
2023-09-17T09:40:28.394Z,43.90
2023-09-17T09:42:55.093Z,43.47
2023-09-17T09:45:21.626Z,43.51
2023-09-17T09:47:52.684Z,42.67
2023-09-17T09:50:27.537Z,42.00
2023-09-17T09:52:54.932Z,41.73
2023-09-17T09:55:26.005Z,41.15
2023-09-17T09:57:53.801Z,41.84
2023-09-17T10:00:30.666Z,41.47
2023-09-17T10:02:57.700Z,42.44
2023-09-17T10:05:41.211Z,42.57
2023-09-17T10:08:12.532Z,42.18
2023-09-17T10:10:40.127Z,41.70
2023-09-17T10:13:08.357Z,41.44
2023-09-17T10:15:40.182Z,40.67
2023-09-17T10:18:11.843Z,40.54
2023-09-17T10:20:39.555Z,39.92
2023-09-17T10:23:07.657Z,39.29
2023-09-17T10:25:35.150Z,39.39
2023-09-17T10:28:03.531Z,38.75
2023-09-17T10:30:31.762Z,39.25
2023-09-17T10:32:59.988Z,38.76
2023-09-17T10:35:27.007Z,38.64
2023-09-17T10:37:57.945Z,37.70
2023-09-17T10:40:26.235Z,38.22
2023-09-17T10:42:54.199Z,37.07
2023-09-17T10:45:22.506Z,37.80
2023-09-17T10:47:52.003Z,37.35
2023-09-17T10:50:19.868Z,37.74
2023-09-17T10:52:46.424Z,37.40
2023-09-17T10:55:13.087Z,37.61
2023-09-17T10:57:48.302Z,37.12
2023-09-17T11:00:19.680Z,36.51
2023-09-17T11:02:53.124Z,35.47
2023-09-17T11:05:23.997Z,35.08
2023-09-17T11:07:53.590Z,35.19
2023-09-17T11:10:31.294Z,35.61
2023-09-17T11:12:59.100Z,35.60
2023-09-17T11:15:25.855Z,34.99
2023-09-17T11:17:59.591Z,35.96
2023-09-17T11:20:26.365Z,34.70
2023-09-17T11:22:53.073Z,34.93
2023-09-17T11:25:36.574Z,35.36
2023-09-17T11:28:13.683Z,37.81
2023-09-17T11:30:57.571Z,36.69
2023-09-17T11:33:25.863Z,36.12
2023-09-17T11:35:54.251Z,35.51
2023-09-17T11:38:27.102Z,35.12
2023-09-17T11:41:11.257Z,36.05
2023-09-17T11:43:49.166Z,37.66
2023-09-17T11:46:17.134Z,37.04
2023-09-17T11:48:45.047Z,36.88
2023-09-17T11:51:23.730Z,35.52
2023-09-17T11:53:51.090Z,36.47
2023-09-17T11:56:17.884Z,36.12
2023-09-17T11:58:44.465Z,35.84
2023-09-17T12:01:11.000Z,35.77
2023-09-17T12:03:38.003Z,36.02
2023-09-17T12:06:06.152Z,35.08
2023-09-17T12:08:33.209Z,35.67
2023-09-17T12:11:08.201Z,36.95
2023-09-17T12:13:34.813Z,35.48
2023-09-17T12:16:02.196Z,36.81
2023-09-17T12:18:29.597Z,35.62
2023-09-17T12:21:00.778Z,35.36
2023-09-17T12:23:48.366Z,33.87
2023-09-17T12:27:00.058Z,33.49
2023-09-17T12:29:26.565Z,34.67
2023-09-17T12:31:53.205Z,34.34
2023-09-17T12:34:20.836Z,34.47
2023-09-17T12:36:47.318Z,35.51
2023-09-17T12:39:14.016Z,34.83
2023-09-17T12:41:41.393Z,34.55
2023-09-17T12:44:08.213Z,34.38
2023-09-17T12:46:34.995Z,34.79
2023-09-17T12:49:02.030Z,35.81
2023-09-17T12:51:28.750Z,34.78
2023-09-17T12:53:55.347Z,35.04
2023-09-17T12:56:22.421Z,35.81
2023-09-17T12:58:52.439Z,36.27
2023-09-17T13:01:18.976Z,37.38
2023-09-17T13:03:53.855Z,36.31
2023-09-17T13:06:21.507Z,35.74
2023-09-17T13:08:48.729Z,36.18
2023-09-17T13:11:15.802Z,36.22
2023-09-17T13:13:46.415Z,35.36
2023-09-17T13:16:13.493Z,35.97
2023-09-17T13:18:40.497Z,35.44
2023-09-17T13:21:07.346Z,36.79
2023-09-17T13:23:38.157Z,36.79
2023-09-17T13:26:06.250Z,36.95
2023-09-17T13:28:33.286Z,37.06
2023-09-17T13:31:04.862Z,37.56
2023-09-17T13:33:32.760Z,36.95
2023-09-17T13:36:01.136Z,36.73
2023-09-17T13:38:27.954Z,37.58
2023-09-17T13:40:54.862Z,36.39
2023-09-17T13:43:21.650Z,36.07
2023-09-17T13:46:02.758Z,37.99
2023-09-17T13:48:30.235Z,37.80
2023-09-17T13:50:57.732Z,38.10
2023-09-17T13:53:24.802Z,38.31
2023-09-17T13:55:51.358Z,37.92
2023-09-17T13:58:18.063Z,38.04
2023-09-17T14:00:44.645Z,37.74
2023-09-17T14:03:15.716Z,38.55
2023-09-17T14:05:45.318Z,37.72
2023-09-17T14:08:12.687Z,37.83
2023-09-17T14:10:42.264Z,37.53
2023-09-17T14:13:09.014Z,37.70
2023-09-17T14:15:36.930Z,37.71
2023-09-17T14:18:03.849Z,38.76
2023-09-17T14:20:30.726Z,38.08
2023-09-17T14:22:57.449Z,38.28
2023-09-17T14:25:24.527Z,39.06
2023-09-17T14:27:51.184Z,38.84
2023-09-17T14:30:22.997Z,38.60
2023-09-17T14:32:51.927Z,39.02
2023-09-17T14:35:19.220Z,37.91
2023-09-17T14:37:47.357Z,38.77
2023-09-17T14:40:14.310Z,38.96
2023-09-17T14:42:40.977Z,39.32
2023-09-17T14:45:08.163Z,39.81
2023-09-17T14:47:36.794Z,39.59
2023-09-17T14:50:03.553Z,39.18
2023-09-17T14:52:30.064Z,40.33
2023-09-17T14:54:56.903Z,39.14
2023-09-17T14:57:23.419Z,39.68
2023-09-17T14:59:49.886Z,39.85
2023-09-17T15:02:17.677Z,39.99
2023-09-17T15:04:44.425Z,39.81
2023-09-17T15:07:13.333Z,39.53
2023-09-17T15:09:41.029Z,40.55
2023-09-17T15:12:07.762Z,39.01
2023-09-17T15:14:34.521Z,39.11
2023-09-17T15:17:01.270Z,39.66
2023-09-17T15:19:27.903Z,39.47
2023-09-17T15:21:54.392Z,39.18
2023-09-17T15:24:20.916Z,39.81
2023-09-17T15:26:47.442Z,39.90
2023-09-17T15:29:14.399Z,40.19
2023-09-17T15:31:41.320Z,39.99
2023-09-17T15:34:08.245Z,39.85
2023-09-17T15:36:35.246Z,40.08
2023-09-17T15:39:01.916Z,40.22
2023-09-17T15:41:29.773Z,39.67
2023-09-17T15:43:56.467Z,40.63
2023-09-17T15:46:24.566Z,40.27
2023-09-17T15:48:51.562Z,40.40
2023-09-17T15:51:19.396Z,40.76
2023-09-17T15:53:45.977Z,41.30
2023-09-17T15:56:12.631Z,41.19
2023-09-17T15:58:39.327Z,41.00
2023-09-17T16:01:05.932Z,42.35
2023-09-17T16:03:32.630Z,42.83
2023-09-17T16:06:01.127Z,42.20
2023-09-17T16:08:27.671Z,42.37
2023-09-17T16:10:54.533Z,42.98
2023-09-17T16:13:21.118Z,42.93
2023-09-17T16:15:51.754Z,43.37
2023-09-17T16:18:18.807Z,43.45
2023-09-17T16:20:45.368Z,43.97
2023-09-17T16:23:11.998Z,44.39
2023-09-17T16:25:39.364Z,44.68
2023-09-17T16:28:06.420Z,44.67
2023-09-17T16:30:32.957Z,44.71
2023-09-17T16:32:59.691Z,45.17
2023-09-17T16:35:27.381Z,45.45
2023-09-17T16:37:53.845Z,45.52
2023-09-17T16:40:20.523Z,46.24
2023-09-17T16:42:58.023Z,46.07
2023-09-17T16:45:32.624Z,46.51
2023-09-17T16:47:59.499Z,46.38
2023-09-17T16:50:29.362Z,46.83
2023-09-17T16:52:56.494Z,47.38
2023-09-17T16:55:23.153Z,47.62
2023-09-17T16:57:49.719Z,48.29
2023-09-17T17:00:16.591Z,48.71
2023-09-17T17:02:43.198Z,49.00
2023-09-17T17:05:09.844Z,49.11
2023-09-17T17:07:36.399Z,49.70
2023-09-17T17:10:02.951Z,50.00
2023-09-17T17:12:29.486Z,50.34
2023-09-17T17:14:56.041Z,50.63
2023-09-17T17:17:23.342Z,50.69
2023-09-17T17:19:50.069Z,50.41
2023-09-17T17:22:17.636Z,50.91
2023-09-17T17:24:44.138Z,51.06
2023-09-17T17:27:10.653Z,51.60
2023-09-17T17:29:37.447Z,51.68
2023-09-17T17:32:04.244Z,52.34
2023-09-17T17:34:30.836Z,52.13
2023-09-17T17:37:01.073Z,52.12
2023-09-17T17:39:27.637Z,52.78
2023-09-17T17:41:54.179Z,52.92
2023-09-17T17:44:20.731Z,53.50
2023-09-17T17:46:47.459Z,55.12
2023-09-17T17:49:13.997Z,54.51
2023-09-17T17:51:40.536Z,55.36
2023-09-17T17:54:07.160Z,55.56
2023-09-17T17:56:33.697Z,55.71
2023-09-17T17:59:00.327Z,55.67
2023-09-17T18:01:27.473Z,56.18
2023-09-17T18:03:54.157Z,57.02
2023-09-17T18:06:21.597Z,57.07
2023-09-17T18:08:48.124Z,56.46
2023-09-17T18:11:15.786Z,56.94
2023-09-17T18:13:42.941Z,57.19
2023-09-17T18:16:09.653Z,57.85
2023-09-17T18:18:36.224Z,56.42
2023-09-17T18:21:02.725Z,56.40
2023-09-17T18:23:29.228Z,57.47
2023-09-17T18:25:56.146Z,57.23
2023-09-17T18:28:23.431Z,56.32
2023-09-17T18:30:50.042Z,56.41
2023-09-17T18:33:16.597Z,56.85
2023-09-17T18:35:43.659Z,56.34
2023-09-17T18:38:10.173Z,57.03
2023-09-17T18:40:38.525Z,58.65
2023-09-17T18:43:05.746Z,57.47
2023-09-17T18:45:33.006Z,57.54
2023-09-17T18:47:59.566Z,57.51
2023-09-17T18:50:26.285Z,58.77
2023-09-17T18:52:53.149Z,58.60
2023-09-17T18:55:19.810Z,58.44
2023-09-17T18:57:46.309Z,58.83
2023-09-17T19:00:14.371Z,59.77
2023-09-17T19:02:43.204Z,60.61
2023-09-17T19:05:10.755Z,60.09
2023-09-17T19:07:37.972Z,60.46
2023-09-17T19:10:05.551Z,59.79
2023-09-17T19:12:32.155Z,60.07
2023-09-17T19:15:00.214Z,60.08
2023-09-17T19:17:28.806Z,60.78
2023-09-17T19:19:55.718Z,59.82
2023-09-17T19:22:22.301Z,60.37
2023-09-17T19:24:48.885Z,60.41
2023-09-17T19:27:16.107Z,59.43
2023-09-17T19:29:45.511Z,59.17
2023-09-17T19:32:14.716Z,59.16
2023-09-17T19:34:41.553Z,59.28
2023-09-17T19:37:09.181Z,59.63
2023-09-17T19:39:35.905Z,59.30
2023-09-17T19:42:02.488Z,59.42
2023-09-17T19:44:29.142Z,59.32
2023-09-17T19:46:57.887Z,60.00
2023-09-17T19:49:26.080Z,59.87
2023-09-17T19:51:52.612Z,60.17
2023-09-17T19:54:19.080Z,60.84
2023-09-17T19:56:47.699Z,60.42
2023-09-17T19:59:14.248Z,60.00
2023-09-17T20:01:40.868Z,59.80
2023-09-17T20:04:08.262Z,60.33
2023-09-17T20:06:47.676Z,60.35
2023-09-17T20:09:21.956Z,60.90
2023-09-17T20:11:48.721Z,60.11
2023-09-17T20:14:15.242Z,60.52
2023-09-17T20:16:41.818Z,61.52
2023-09-17T20:19:08.436Z,60.45
2023-09-17T20:21:35.016Z,61.46
2023-09-17T20:24:01.524Z,61.48
2023-09-17T20:26:28.111Z,62.10
2023-09-17T20:28:54.960Z,61.97
2023-09-17T20:31:21.947Z,61.00
2023-09-17T20:33:48.881Z,61.73
2023-09-17T20:36:15.473Z,60.98
2023-09-17T20:38:45.937Z,60.79
2023-09-17T20:41:13.100Z,60.85
2023-09-17T20:43:39.677Z,61.28
2023-09-17T20:46:06.238Z,60.60
2023-09-17T20:48:32.971Z,61.41
2023-09-17T20:51:01.512Z,61.46
2023-09-17T20:53:30.217Z,61.07
2023-09-17T20:55:56.966Z,61.48
2023-09-17T20:58:23.492Z,62.05
2023-09-17T21:00:50.054Z,62.88
2023-09-17T21:03:16.758Z,63.35
2023-09-17T21:05:50.007Z,63.79
2023-09-17T21:08:16.778Z,63.46
2023-09-17T21:10:43.770Z,63.09
2023-09-17T21:13:11.965Z,62.09
2023-09-17T21:15:39.354Z,62.37
2023-09-17T21:18:07.109Z,62.64
2023-09-17T21:20:34.048Z,62.63
2023-09-17T21:23:01.394Z,62.17
2023-09-17T21:25:28.448Z,62.51
2023-09-17T21:27:55.313Z,62.34
2023-09-17T21:30:21.953Z,62.94
2023-09-17T21:32:48.699Z,62.80
2023-09-17T21:35:15.629Z,63.04
2023-09-17T21:37:42.242Z,63.42
2023-09-17T21:40:09.508Z,62.97
2023-09-17T21:42:37.131Z,62.98
2023-09-17T21:45:04.295Z,63.75
2023-09-17T21:47:31.016Z,63.78
2023-09-17T21:50:00.620Z,63.77
2023-09-17T21:52:29.560Z,65.22
2023-09-17T21:54:59.129Z,65.13
2023-09-17T21:57:25.837Z,64.75
2023-09-17T21:59:52.959Z,64.97
2023-09-17T22:02:20.416Z,63.22
2023-09-17T22:04:47.230Z,64.52
2023-09-17T22:07:13.818Z,62.54
2023-09-17T22:09:41.000Z,62.20
2023-09-17T22:12:08.502Z,62.17
2023-09-17T22:14:35.783Z,62.68
2023-09-17T22:17:06.060Z,62.93
2023-09-17T22:19:34.129Z,64.26
2023-09-17T22:22:00.755Z,63.17
2023-09-17T22:24:27.248Z,63.97
2023-09-17T22:26:53.746Z,64.24
2023-09-17T22:29:20.291Z,64.13
2023-09-17T22:31:46.802Z,65.27
2023-09-17T22:34:13.442Z,65.37
2023-09-17T22:36:40.570Z,65.35
2023-09-17T22:39:07.366Z,64.94
2023-09-17T22:41:34.081Z,64.44
2023-09-17T22:44:11.851Z,63.86
2023-09-17T22:46:43.190Z,63.87
2023-09-17T22:49:09.902Z,64.44
2023-09-17T22:51:37.151Z,64.50
2023-09-17T22:54:03.894Z,64.13
2023-09-17T22:56:30.562Z,64.03
2023-09-17T22:58:57.161Z,65.86
2023-09-17T23:01:23.714Z,65.96
2023-09-17T23:03:50.225Z,66.72
2023-09-17T23:06:17.485Z,66.66
2023-09-17T23:08:44.009Z,65.84
2023-09-17T23:11:10.752Z,65.92
2023-09-17T23:13:37.461Z,67.18
2023-09-17T23:16:04.681Z,65.92
2023-09-17T23:18:31.436Z,66.57
2023-09-17T23:20:58.420Z,65.35
2023-09-17T23:23:25.339Z,67.32
2023-09-17T23:25:56.138Z,66.14
2023-09-17T23:28:24.427Z,67.37
2023-09-17T23:30:52.316Z,68.04
2023-09-17T23:33:21.933Z,66.62
2023-09-17T23:35:51.089Z,66.40
2023-09-17T23:38:18.360Z,66.58
2023-09-17T23:40:45.191Z,66.97
2023-09-17T23:43:12.260Z,68.90
2023-09-17T23:45:40.346Z,67.10
2023-09-17T23:48:07.147Z,66.38
2023-09-17T23:50:33.846Z,67.68
2023-09-17T23:53:00.507Z,67.39
2023-09-17T23:55:27.291Z,66.04
2023-09-17T23:57:53.850Z,66.35
